sensor_id;sensor_type;location;lat;lon;timestamp;temperature;humidity
25360;DHT22;13311;51.386;0.016;2022-11-15T00:00:15;13.50;99.20
25360;DHT22;13311;51.386;0.016;2022-11-15T00:05:16;13.50;99.30
25360;DHT22;13311;51.386;0.016;2022-11-15T00:10:17;13.40;99.10
25360;DHT22;13311;51.386;0.016;2022-11-15T00:15:18;13.40;99.10
25360;DHT22;13311;51.386;0.016;2022-11-15T00:20:19;13.40;98.80
25360;DHT22;13311;51.386;0.016;2022-11-15T00:25:19;13.30;98.50
25360;DHT22;13311;51.386;0.016;2022-11-15T00:30:20;13.40;98.50
25360;DHT22;13311;51.386;0.016;2022-11-15T00:35:21;13.40;98.40
25360;DHT22;13311;51.386;0.016;2022-11-15T00:40:22;13.30;98.60
25360;DHT22;13311;51.386;0.016;2022-11-15T00:45:23;13.20;98.60
25360;DHT22;13311;51.386;0.016;2022-11-15T00:50:24;13.20;98.50
25360;DHT22;13311;51.386;0.016;2022-11-15T00:55:25;13.10;98.60
25360;DHT22;13311;51.386;0.016;2022-11-15T01:00:25;13.00;98.50
25360;DHT22;13311;51.386;0.016;2022-11-15T01:05:26;13.00;98.60
25360;DHT22;13311;51.386;0.016;2022-11-15T01:10:28;12.90;98.70
25360;DHT22;13311;51.386;0.016;2022-11-15T01:15:28;12.90;98.70
25360;DHT22;13311;51.386;0.016;2022-11-15T01:20:29;12.90;98.60
25360;DHT22;13311;51.386;0.016;2022-11-15T01:25:30;12.90;98.60
25360;DHT22;13311;51.386;0.016;2022-11-15T01:30:30;12.80;98.40
25360;DHT22;13311;51.386;0.016;2022-11-15T01:35:31;12.70;98.70
25360;DHT22;13311;51.386;0.016;2022-11-15T01:40:32;12.70;98.90
25360;DHT22;13311;51.386;0.016;2022-11-15T01:45:32;12.60;98.90
25360;DHT22;13311;51.386;0.016;2022-11-15T01:50:33;12.60;98.90
25360;DHT22;13311;51.386;0.016;2022-11-15T01:55:34;12.70;98.90
25360;DHT22;13311;51.386;0.016;2022-11-15T02:00:37;12.70;98.80
25360;DHT22;13311;51.386;0.016;2022-11-15T02:05:38;12.70;98.70
25360;DHT22;13311;51.386;0.016;2022-11-15T02:10:40;12.70;98.80
25360;DHT22;13311;51.386;0.016;2022-11-15T02:16:02;12.50;99.00
25360;DHT22;13311;51.386;0.016;2022-11-15T02:42:55;12.40;99.60
25360;DHT22;13311;51.386;0.016;2022-11-15T02:48:17;12.50;99.50
25360;DHT22;13311;51.386;0.016;2022-11-15T02:53:23;12.50;99.50
25360;DHT22;13311;51.386;0.016;2022-11-15T02:58:45;12.50;99.50
25360;DHT22;13311;51.386;0.016;2022-11-15T03:04:21;12.50;99.50
25360;DHT22;13311;51.386;0.016;2022-11-15T03:15:10;12.60;99.50
25360;DHT22;13311;51.386;0.016;2022-11-15T03:20:17;12.60;99.70
25360;DHT22;13311;51.386;0.016;2022-11-15T03:25:22;12.50;99.90
25360;DHT22;13311;51.386;0.016;2022-11-15T03:30:24;12.50;99.90
25360;DHT22;13311;51.386;0.016;2022-11-15T03:35:27;12.50;99.90
25360;DHT22;13311;51.386;0.016;2022-11-15T03:40:54;12.60;99.90
25360;DHT22;13311;51.386;0.016;2022-11-15T03:46:06;12.60;99.90
25360;DHT22;13311;51.386;0.016;2022-11-15T03:51:11;12.70;99.90
25360;DHT22;13311;51.386;0.016;2022-11-15T03:56:12;12.70;99.90
25360;DHT22;13311;51.386;0.016;2022-11-15T04:01:13;12.80;99.90
25360;DHT22;13311;51.386;0.016;2022-11-15T04:06:14;12.70;99.90
25360;DHT22;13311;51.386;0.016;2022-11-15T04:11:15;12.80;99.90
25360;DHT22;13311;51.386;0.016;2022-11-15T04:16:15;12.80;99.90
25360;DHT22;13311;51.386;0.016;2022-11-15T04:21:16;12.80;99.90
25360;DHT22;13311;51.386;0.016;2022-11-15T04:26:35;12.90;99.90
25360;DHT22;13311;51.386;0.016;2022-11-15T04:31:36;12.90;99.90
25360;DHT22;13311;51.386;0.016;2022-11-15T04:36:37;13.00;99.90
25360;DHT22;13311;51.386;0.016;2022-11-15T04:41:56;13.10;99.90
25360;DHT22;13311;51.386;0.016;2022-11-15T04:46:57;13.10;99.90
25360;DHT22;13311;51.386;0.016;2022-11-15T04:51:57;13.20;99.90
25360;DHT22;13311;51.386;0.016;2022-11-15T04:56:58;13.30;99.90
25360;DHT22;13311;51.386;0.016;2022-11-15T05:01:59;13.30;99.90
25360;DHT22;13311;51.386;0.016;2022-11-15T05:06:59;13.40;99.90
25360;DHT22;13311;51.386;0.016;2022-11-15T05:12:00;13.50;99.90
25360;DHT22;13311;51.386;0.016;2022-11-15T05:17:01;13.50;99.90
25360;DHT22;13311;51.386;0.016;2022-11-15T05:22:02;13.70;99.90
25360;DHT22;13311;51.386;0.016;2022-11-15T05:27:02;13.70;99.90
25360;DHT22;13311;51.386;0.016;2022-11-15T05:32:05;13.70;99.90
25360;DHT22;13311;51.386;0.016;2022-11-15T05:37:06;13.80;99.90
25360;DHT22;13311;51.386;0.016;2022-11-15T05:42:15;13.80;99.90
25360;DHT22;13311;51.386;0.016;2022-11-15T05:47:23;13.70;99.90
25360;DHT22;13311;51.386;0.016;2022-11-15T05:52:29;13.70;99.90
25360;DHT22;13311;51.386;0.016;2022-11-15T05:57:32;13.70;99.90
25360;DHT22;13311;51.386;0.016;2022-11-15T06:02:32;13.60;99.90
25360;DHT22;13311;51.386;0.016;2022-11-15T06:07:33;13.50;99.90
25360;DHT22;13311;51.386;0.016;2022-11-15T06:12:34;13.60;99.90
25360;DHT22;13311;51.386;0.016;2022-11-15T06:17:34;13.70;99.90
25360;DHT22;13311;51.386;0.016;2022-11-15T06:22:35;13.80;99.90
25360;DHT22;13311;51.386;0.016;2022-11-15T06:27:36;13.70;99.90
25360;DHT22;13311;51.386;0.016;2022-11-15T06:32:36;13.60;99.90
25360;DHT22;13311;51.386;0.016;2022-11-15T06:37:37;13.60;99.90
25360;DHT22;13311;51.386;0.016;2022-11-15T06:42:38;13.60;99.90
25360;DHT22;13311;51.386;0.016;2022-11-15T06:47:45;13.70;99.90
25360;DHT22;13311;51.386;0.016;2022-11-15T06:52:47;13.70;99.90
25360;DHT22;13311;51.386;0.016;2022-11-15T06:57:49;13.70;99.90
25360;DHT22;13311;51.386;0.016;2022-11-15T07:02:50;13.50;99.90
25360;DHT22;13311;51.386;0.016;2022-11-15T07:07:52;13.40;99.90
25360;DHT22;13311;51.386;0.016;2022-11-15T07:12:54;13.50;99.90
25360;DHT22;13311;51.386;0.016;2022-11-15T07:17:55;13.50;99.90
25360;DHT22;13311;51.386;0.016;2022-11-15T07:23:00;13.40;99.90
25360;DHT22;13311;51.386;0.016;2022-11-15T07:28:02;13.30;99.90
25360;DHT22;13311;51.386;0.016;2022-11-15T07:33:03;13.30;99.90
25360;DHT22;13311;51.386;0.016;2022-11-15T07:38:04;13.20;99.90
25360;DHT22;13311;51.386;0.016;2022-11-15T07:43:08;13.30;99.90
25360;DHT22;13311;51.386;0.016;2022-11-15T07:48:09;13.20;99.90
25360;DHT22;13311;51.386;0.016;2022-11-15T07:53:10;13.20;99.90
25360;DHT22;13311;51.386;0.016;2022-11-15T07:58:11;13.10;99.90
25360;DHT22;13311;51.386;0.016;2022-11-15T08:03:15;13.10;99.90
25360;DHT22;13311;51.386;0.016;2022-11-15T08:08:16;13.00;99.90
25360;DHT22;13311;51.386;0.016;2022-11-15T08:13:17;12.90;99.90
25360;DHT22;13311;51.386;0.016;2022-11-15T08:18:18;12.80;99.90
25360;DHT22;13311;51.386;0.016;2022-11-15T08:23:20;12.70;99.90
25360;DHT22;13311;51.386;0.016;2022-11-15T08:28:21;12.80;99.90
25360;DHT22;13311;51.386;0.016;2022-11-15T08:33:21;12.80;99.90
25360;DHT22;13311;51.386;0.016;2022-11-15T08:38:22;12.80;99.90
25360;DHT22;13311;51.386;0.016;2022-11-15T08:43:23;12.80;99.90
25360;DHT22;13311;51.386;0.016;2022-11-15T08:48:24;12.80;99.90
25360;DHT22;13311;51.386;0.016;2022-11-15T08:53:25;12.80;99.90
25360;DHT22;13311;51.386;0.016;2022-11-15T08:58:25;12.80;99.90
25360;DHT22;13311;51.386;0.016;2022-11-15T09:03:26;12.80;99.90
25360;DHT22;13311;51.386;0.016;2022-11-15T09:08:30;12.90;99.90
25360;DHT22;13311;51.386;0.016;2022-11-15T09:13:31;13.00;99.90
25360;DHT22;13311;51.386;0.016;2022-11-15T09:18:34;13.00;99.90
25360;DHT22;13311;51.386;0.016;2022-11-15T09:23:34;13.10;99.90
25360;DHT22;13311;51.386;0.016;2022-11-15T09:28:35;13.10;99.90
25360;DHT22;13311;51.386;0.016;2022-11-15T09:33:37;13.10;99.90
25360;DHT22;13311;51.386;0.016;2022-11-15T09:38:37;13.10;99.90
25360;DHT22;13311;51.386;0.016;2022-11-15T09:44:04;13.20;99.90
25360;DHT22;13311;51.386;0.016;2022-11-15T09:49:16;13.20;99.90
25360;DHT22;13311;51.386;0.016;2022-11-15T09:59:49;13.30;99.90
25360;DHT22;13311;51.386;0.016;2022-11-15T10:04:57;13.30;99.90
25360;DHT22;13311;51.386;0.016;2022-11-15T10:10:17;13.30;99.90
25360;DHT22;13311;51.386;0.016;2022-11-15T10:15:24;13.40;99.90
25360;DHT22;13311;51.386;0.016;2022-11-15T10:20:29;13.40;99.90
25360;DHT22;13311;51.386;0.016;2022-11-15T10:25:33;13.50;99.90
25360;DHT22;13311;51.386;0.016;2022-11-15T10:30:39;13.50;99.90
25360;DHT22;13311;51.386;0.016;2022-11-15T10:35:45;13.40;99.90
25360;DHT22;13311;51.386;0.016;2022-11-15T10:40:46;13.50;99.90
25360;DHT22;13311;51.386;0.016;2022-11-15T10:45:47;13.60;99.90
25360;DHT22;13311;51.386;0.016;2022-11-15T10:50:49;13.70;99.90
25360;DHT22;13311;51.386;0.016;2022-11-15T10:55:54;13.60;99.90
25360;DHT22;13311;51.386;0.016;2022-11-15T11:01:24;13.70;99.90
25360;DHT22;13311;51.386;0.016;2022-11-15T11:06:26;13.70;99.90
25360;DHT22;13311;51.386;0.016;2022-11-15T11:11:47;13.70;99.90
25360;DHT22;13311;51.386;0.016;2022-11-15T11:33:27;13.70;99.90
25360;DHT22;13311;51.386;0.016;2022-11-15T11:38:49;13.80;99.90
25360;DHT22;13311;51.386;0.016;2022-11-15T11:55:05;13.80;99.90
25360;DHT22;13311;51.386;0.016;2022-11-15T12:00:26;13.90;99.90
25360;DHT22;13311;51.386;0.016;2022-11-15T12:05:54;13.90;99.90
25360;DHT22;13311;51.386;0.016;2022-11-15T12:16:32;13.80;99.90
25360;DHT22;13311;51.386;0.016;2022-11-15T12:32:40;14.10;99.90
25360;DHT22;13311;51.386;0.016;2022-11-15T12:37:52;14.10;99.90
25360;DHT22;13311;51.386;0.016;2022-11-15T12:53:35;14.20;99.90
25360;DHT22;13311;51.386;0.016;2022-11-15T13:04:14;14.20;99.90
25360;DHT22;13311;51.386;0.016;2022-11-15T13:19:39;14.30;99.90
25360;DHT22;13311;51.386;0.016;2022-11-15T13:24:40;14.30;99.90
25360;DHT22;13311;51.386;0.016;2022-11-15T13:29:43;14.50;99.90
25360;DHT22;13311;51.386;0.016;2022-11-15T13:34:46;14.70;99.90
25360;DHT22;13311;51.386;0.016;2022-11-15T13:39:49;14.90;99.90
25360;DHT22;13311;51.386;0.016;2022-11-15T13:45:00;15.10;99.90
25360;DHT22;13311;51.386;0.016;2022-11-15T13:50:04;15.40;99.90
25360;DHT22;13311;51.386;0.016;2022-11-15T13:55:14;15.60;99.90
25360;DHT22;13311;51.386;0.016;2022-11-15T14:00:37;15.80;99.90
25360;DHT22;13311;51.386;0.016;2022-11-15T14:05:44;16.00;99.90
25360;DHT22;13311;51.386;0.016;2022-11-15T14:11:18;16.10;99.90
25360;DHT22;13311;51.386;0.016;2022-11-15T14:16:33;16.20;99.90
25360;DHT22;13311;51.386;0.016;2022-11-15T14:32:37;16.20;99.90
25360;DHT22;13311;51.386;0.016;2022-11-15T14:37:44;16.20;99.90
25360;DHT22;13311;51.386;0.016;2022-11-15T14:42:47;16.10;99.90
25360;DHT22;13311;51.386;0.016;2022-11-15T14:47:49;16.20;99.90
25360;DHT22;13311;51.386;0.016;2022-11-15T14:52:49;16.10;99.90
25360;DHT22;13311;51.386;0.016;2022-11-15T14:57:50;16.20;99.90
25360;DHT22;13311;51.386;0.016;2022-11-15T15:02:53;16.00;99.90
25360;DHT22;13311;51.386;0.016;2022-11-15T15:07:54;16.00;99.90
25360;DHT22;13311;51.386;0.016;2022-11-15T15:12:55;15.90;99.90
25360;DHT22;13311;51.386;0.016;2022-11-15T15:17:56;15.90;99.90
25360;DHT22;13311;51.386;0.016;2022-11-15T15:22:56;15.70;99.90
25360;DHT22;13311;51.386;0.016;2022-11-15T15:27:58;15.70;99.90
25360;DHT22;13311;51.386;0.016;2022-11-15T15:32:59;15.60;99.90
25360;DHT22;13311;51.386;0.016;2022-11-15T15:38:00;15.40;99.90
25360;DHT22;13311;51.386;0.016;2022-11-15T15:43:02;15.40;99.90
25360;DHT22;13311;51.386;0.016;2022-11-15T15:48:02;15.40;99.90
25360;DHT22;13311;51.386;0.016;2022-11-15T15:53:04;15.10;99.90
25360;DHT22;13311;51.386;0.016;2022-11-15T15:58:05;15.00;99.90
25360;DHT22;13311;51.386;0.016;2022-11-15T16:03:06;15.00;99.90
25360;DHT22;13311;51.386;0.016;2022-11-15T16:08:23;14.90;99.90
25360;DHT22;13311;51.386;0.016;2022-11-15T16:13:26;14.90;99.90
25360;DHT22;13311;51.386;0.016;2022-11-15T16:18:27;14.80;99.90
25360;DHT22;13311;51.386;0.016;2022-11-15T16:23:28;14.80;99.90
25360;DHT22;13311;51.386;0.016;2022-11-15T16:28:31;14.90;99.90
25360;DHT22;13311;51.386;0.016;2022-11-15T16:33:32;14.80;99.90
25360;DHT22;13311;51.386;0.016;2022-11-15T16:38:33;14.90;99.90
25360;DHT22;13311;51.386;0.016;2022-11-15T16:43:34;15.00;99.90
25360;DHT22;13311;51.386;0.016;2022-11-15T16:48:34;14.90;99.90
25360;DHT22;13311;51.386;0.016;2022-11-15T16:53:35;14.80;99.90
25360;DHT22;13311;51.386;0.016;2022-11-15T16:58:37;14.70;99.90
25360;DHT22;13311;51.386;0.016;2022-11-15T17:03:38;14.60;99.90
25360;DHT22;13311;51.386;0.016;2022-11-15T17:08:39;14.70;99.90
25360;DHT22;13311;51.386;0.016;2022-11-15T17:13:40;14.60;99.90
25360;DHT22;13311;51.386;0.016;2022-11-15T17:18:41;14.60;99.90
25360;DHT22;13311;51.386;0.016;2022-11-15T17:23:45;14.50;99.90
25360;DHT22;13311;51.386;0.016;2022-11-15T17:28:45;14.40;99.90
25360;DHT22;13311;51.386;0.016;2022-11-15T17:33:46;14.50;99.90
25360;DHT22;13311;51.386;0.016;2022-11-15T17:38:47;14.40;99.90
25360;DHT22;13311;51.386;0.016;2022-11-15T17:43:52;14.40;99.90
25360;DHT22;13311;51.386;0.016;2022-11-15T17:48:54;14.40;99.90
25360;DHT22;13311;51.386;0.016;2022-11-15T17:53:55;14.20;99.90
25360;DHT22;13311;51.386;0.016;2022-11-15T17:58:57;14.20;99.90
25360;DHT22;13311;51.386;0.016;2022-11-15T18:04:00;14.10;99.90
25360;DHT22;13311;51.386;0.016;2022-11-15T18:09:03;14.10;99.90
25360;DHT22;13311;51.386;0.016;2022-11-15T18:14:09;14.20;99.90
25360;DHT22;13311;51.386;0.016;2022-11-15T18:19:13;14.30;99.90
25360;DHT22;13311;51.386;0.016;2022-11-15T18:24:14;14.20;99.90
25360;DHT22;13311;51.386;0.016;2022-11-15T18:29:18;14.40;99.90
25360;DHT22;13311;51.386;0.016;2022-11-15T18:34:19;14.40;99.90
25360;DHT22;13311;51.386;0.016;2022-11-15T18:39:23;14.40;99.90
25360;DHT22;13311;51.386;0.016;2022-11-15T18:44:24;14.30;99.90
25360;DHT22;13311;51.386;0.016;2022-11-15T18:49:25;14.20;99.90
25360;DHT22;13311;51.386;0.016;2022-11-15T18:54:30;14.10;99.90
25360;DHT22;13311;51.386;0.016;2022-11-15T18:59:30;13.90;99.90
25360;DHT22;13311;51.386;0.016;2022-11-15T19:04:31;13.80;99.90
25360;DHT22;13311;51.386;0.016;2022-11-15T19:09:32;13.70;99.90
25360;DHT22;13311;51.386;0.016;2022-11-15T19:14:33;13.70;99.90
25360;DHT22;13311;51.386;0.016;2022-11-15T19:19:33;13.60;99.90
25360;DHT22;13311;51.386;0.016;2022-11-15T19:24:34;13.50;99.90
25360;DHT22;13311;51.386;0.016;2022-11-15T19:29:35;13.40;99.90
25360;DHT22;13311;51.386;0.016;2022-11-15T19:34:36;13.30;99.90
25360;DHT22;13311;51.386;0.016;2022-11-15T19:39:36;13.30;99.90
25360;DHT22;13311;51.386;0.016;2022-11-15T19:44:37;13.10;99.90
25360;DHT22;13311;51.386;0.016;2022-11-15T19:49:38;13.00;99.90
25360;DHT22;13311;51.386;0.016;2022-11-15T19:54:39;12.90;99.90
25360;DHT22;13311;51.386;0.016;2022-11-15T19:59:39;12.90;99.90
25360;DHT22;13311;51.386;0.016;2022-11-15T20:04:40;12.90;99.90
25360;DHT22;13311;51.386;0.016;2022-11-15T20:09:43;13.00;99.90
25360;DHT22;13311;51.386;0.016;2022-11-15T20:14:43;13.00;99.90
25360;DHT22;13311;51.386;0.016;2022-11-15T20:19:45;13.00;99.90
25360;DHT22;13311;51.386;0.016;2022-11-15T20:24:46;13.00;99.90
25360;DHT22;13311;51.386;0.016;2022-11-15T20:29:47;12.90;99.90
25360;DHT22;13311;51.386;0.016;2022-11-15T20:34:48;12.80;99.90
25360;DHT22;13311;51.386;0.016;2022-11-15T20:39:48;12.60;99.90
25360;DHT22;13311;51.386;0.016;2022-11-15T20:44:49;12.60;99.90
25360;DHT22;13311;51.386;0.016;2022-11-15T20:49:50;12.50;99.90
25360;DHT22;13311;51.386;0.016;2022-11-15T20:54:50;12.50;99.90
25360;DHT22;13311;51.386;0.016;2022-11-15T20:59:51;12.40;99.90
25360;DHT22;13311;51.386;0.016;2022-11-15T21:04:52;12.30;99.90
25360;DHT22;13311;51.386;0.016;2022-11-15T21:09:52;12.20;99.90
25360;DHT22;13311;51.386;0.016;2022-11-15T21:15:12;12.10;99.90
25360;DHT22;13311;51.386;0.016;2022-11-15T21:20:13;12.00;99.90
25360;DHT22;13311;51.386;0.016;2022-11-15T21:25:18;12.00;99.90
25360;DHT22;13311;51.386;0.016;2022-11-15T21:30:19;12.10;99.90
25360;DHT22;13311;51.386;0.016;2022-11-15T21:35:19;12.00;99.90
25360;DHT22;13311;51.386;0.016;2022-11-15T21:40:21;11.90;99.90
25360;DHT22;13311;51.386;0.016;2022-11-15T21:45:23;12.00;99.90
25360;DHT22;13311;51.386;0.016;2022-11-15T21:50:24;12.00;99.90
25360;DHT22;13311;51.386;0.016;2022-11-15T21:55:25;12.10;99.90
25360;DHT22;13311;51.386;0.016;2022-11-15T22:00:25;12.00;99.80
25360;DHT22;13311;51.386;0.016;2022-11-15T22:05:45;12.00;99.90
25360;DHT22;13311;51.386;0.016;2022-11-15T22:10:46;11.90;99.90
25360;DHT22;13311;51.386;0.016;2022-11-15T22:15:48;11.90;99.90
25360;DHT22;13311;51.386;0.016;2022-11-15T22:21:01;11.80;99.90
25360;DHT22;13311;51.386;0.016;2022-11-15T22:26:08;11.70;99.90
25360;DHT22;13311;51.386;0.016;2022-11-15T22:31:11;11.70;99.90
25360;DHT22;13311;51.386;0.016;2022-11-15T22:36:12;11.60;99.90
25360;DHT22;13311;51.386;0.016;2022-11-15T22:41:12;11.60;99.90
25360;DHT22;13311;51.386;0.016;2022-11-15T22:46:13;11.50;99.90
25360;DHT22;13311;51.386;0.016;2022-11-15T22:51:14;11.50;99.90
25360;DHT22;13311;51.386;0.016;2022-11-15T22:56:15;11.50;99.90
25360;DHT22;13311;51.386;0.016;2022-11-15T23:01:20;11.60;99.90
25360;DHT22;13311;51.386;0.016;2022-11-15T23:06:21;11.60;99.90
25360;DHT22;13311;51.386;0.016;2022-11-15T23:11:22;11.60;99.90
25360;DHT22;13311;51.386;0.016;2022-11-15T23:16:41;11.50;99.90
25360;DHT22;13311;51.386;0.016;2022-11-15T23:21:43;11.60;99.90
25360;DHT22;13311;51.386;0.016;2022-11-15T23:27:05;11.70;99.90
25360;DHT22;13311;51.386;0.016;2022-11-15T23:32:07;11.70;99.90
25360;DHT22;13311;51.386;0.016;2022-11-15T23:37:27;11.60;99.90
25360;DHT22;13311;51.386;0.016;2022-11-15T23:42:28;11.60;99.90
25360;DHT22;13311;51.386;0.016;2022-11-15T23:47:29;11.60;99.90
25360;DHT22;13311;51.386;0.016;2022-11-15T23:52:30;11.70;99.90
25360;DHT22;13311;51.386;0.016;2022-11-15T23:57:31;11.70;99.90
